createdAt,value
2023-02-22T00:04:07.965Z,4.15
2023-02-22T00:09:11.346Z,4.30
2023-02-22T00:14:18.125Z,4.80
2023-02-22T00:19:21.543Z,6.00
2023-02-22T00:24:24.882Z,4.55
2023-02-22T00:29:29.645Z,4.78
2023-02-22T00:34:32.979Z,5.40
2023-02-22T00:39:36.488Z,5.90
2023-02-22T00:44:41.483Z,7.57
2023-02-22T00:49:45.108Z,5.57
2023-02-22T00:54:48.496Z,5.95
2023-02-22T00:59:53.167Z,6.50
2023-02-22T01:04:56.553Z,7.20
2023-02-22T01:10:00.556Z,5.93
2023-02-22T01:15:06.712Z,7.00
2023-02-22T01:20:12.745Z,6.65
2023-02-22T01:25:18.909Z,6.60
2023-02-22T01:30:25.749Z,6.45
2023-02-22T01:35:31.353Z,6.70
2023-02-22T01:45:45.553Z,6.32
2023-02-22T01:50:55.134Z,6.22
2023-02-22T01:56:00.428Z,6.82
2023-02-22T02:06:13.892Z,6.90
2023-02-22T02:11:20.230Z,5.85
2023-02-22T02:16:27.065Z,6.10
2023-02-22T02:22:12.793Z,7.07
2023-02-22T02:27:20.487Z,8.57
2023-02-22T02:32:32.761Z,6.72
2023-02-22T02:37:40.972Z,5.78
2023-02-22T02:42:52.431Z,7.05
2023-02-22T02:48:00.347Z,6.38
2023-02-22T02:53:09.270Z,6.85
2023-02-22T02:58:20.004Z,6.70
2023-02-22T03:03:49.136Z,5.65
2023-02-22T03:09:03.584Z,6.35
2023-02-22T03:14:17.793Z,6.75
2023-02-22T03:19:28.795Z,5.97
2023-02-22T03:24:35.653Z,7.15
2023-02-22T03:29:42.898Z,6.68
2023-02-22T03:34:53.754Z,6.35
2023-02-22T03:40:01.908Z,6.90
2023-02-22T03:45:10.155Z,7.35
2023-02-22T03:50:19.330Z,5.97
2023-02-22T03:55:23.864Z,7.22
2023-02-22T04:00:30.742Z,6.53
2023-02-22T04:05:35.739Z,7.43
2023-02-22T04:10:39.170Z,6.93
2023-02-22T04:15:42.946Z,7.13
2023-02-22T04:20:49.265Z,7.20
2023-02-22T04:26:01.802Z,7.53
2023-02-22T04:31:07.172Z,7.10
2023-02-22T04:36:13.588Z,7.35
2023-02-22T04:41:19.547Z,7.03
2023-02-22T04:46:23.607Z,7.95
2023-02-22T04:51:30.116Z,8.10
2023-02-22T04:56:36.839Z,9.02
2023-02-22T05:01:40.178Z,7.82
2023-02-22T05:06:44.840Z,8.10
2023-02-22T05:11:48.166Z,9.33
2023-02-22T05:16:51.439Z,9.55
2023-02-22T05:21:56.529Z,9.13
2023-02-22T05:26:59.808Z,8.73
2023-02-22T05:32:03.381Z,9.38
2023-02-22T05:37:08.270Z,8.30
2023-02-22T05:42:11.597Z,9.90
2023-02-22T05:47:14.942Z,8.75
2023-02-22T05:52:20.084Z,8.73
2023-02-22T05:57:23.351Z,8.93
2023-02-22T06:02:26.684Z,8.93
2023-02-22T06:07:31.455Z,8.85
2023-02-22T06:12:34.768Z,7.67
2023-02-22T06:17:39.649Z,8.25
2023-02-22T06:22:45.654Z,8.33
2023-02-22T06:27:49.306Z,7.82
2023-02-22T06:32:52.579Z,9.85
2023-02-22T06:37:57.331Z,9.50
2023-02-22T06:43:00.960Z,8.80
2023-02-22T06:48:04.587Z,9.25
2023-02-22T06:53:10.362Z,9.55
2023-02-22T06:58:13.954Z,10.55
2023-02-22T07:03:17.735Z,9.32
2023-02-22T07:08:22.515Z,8.70
2023-02-22T07:13:26.193Z,8.03
2023-02-22T07:18:30.949Z,8.88
2023-02-22T07:23:35.767Z,6.87
2023-02-22T07:28:38.993Z,7.63
2023-02-22T07:33:52.155Z,7.93
2023-02-22T07:38:56.722Z,7.95
2023-02-22T07:43:59.984Z,7.45
2023-02-22T07:49:03.449Z,7.38
2023-02-22T07:54:08.133Z,9.07
2023-02-22T07:59:11.521Z,8.23
2023-02-22T08:04:14.830Z,8.38
2023-02-22T08:09:19.425Z,8.20
2023-02-22T08:14:22.736Z,6.72
2023-02-22T08:19:25.990Z,8.95
2023-02-22T08:24:30.743Z,8.85
2023-02-22T08:29:34.448Z,8.87
2023-02-22T08:34:38.106Z,8.63
2023-02-22T08:39:42.829Z,8.98
2023-02-22T08:44:46.281Z,9.43
2023-02-22T08:49:49.538Z,9.50
2023-02-22T08:54:55.779Z,9.30
2023-02-22T08:59:59.036Z,8.75
2023-02-22T09:05:02.565Z,10.00
2023-02-22T09:10:08.041Z,8.60
2023-02-22T09:15:12.257Z,8.50
2023-02-22T09:20:18.376Z,9.10
2023-02-22T09:25:23.900Z,8.95
2023-02-22T09:35:31.836Z,8.00
2023-02-22T09:40:44.998Z,8.63
2023-02-22T09:46:03.043Z,8.75
2023-02-22T09:51:16.925Z,8.15
2023-02-22T09:56:22.521Z,7.82
2023-02-22T10:06:33.584Z,7.70
2023-02-22T10:17:00.419Z,7.93
2023-02-22T10:22:32.844Z,7.75
2023-02-22T10:27:40.982Z,8.60
2023-02-22T10:32:46.500Z,7.50
2023-02-22T10:42:58.828Z,8.25
2023-02-22T10:48:08.625Z,7.50
2023-02-22T10:53:13.257Z,7.75
2023-02-22T10:58:18.398Z,7.68
2023-02-22T11:03:23.494Z,8.77
2023-02-22T11:08:29.283Z,8.43
2023-02-22T11:13:38.887Z,8.77
2023-02-22T11:18:42.232Z,9.70
2023-02-22T11:23:45.595Z,7.18
2023-02-22T11:28:56.176Z,7.05
2023-02-22T11:34:01.572Z,7.43
2023-02-22T11:39:06.643Z,8.10
2023-02-22T11:44:24.834Z,7.18
2023-02-22T11:49:35.279Z,7.05
2023-02-22T11:54:58.757Z,7.35
2023-02-22T12:00:16.789Z,8.15
2023-02-22T12:05:37.196Z,7.40
2023-02-22T12:10:50.103Z,7.75
2023-02-22T12:16:04.164Z,6.75
2023-02-22T12:21:16.755Z,7.05
2023-02-22T12:26:25.756Z,6.43
2023-02-22T12:31:34.275Z,6.78
2023-02-22T12:36:42.974Z,6.72
2023-02-22T12:41:49.486Z,5.95
2023-02-22T12:46:56.770Z,7.05
2023-02-22T12:52:20.616Z,6.28
2023-02-22T12:57:35.229Z,5.03
2023-02-22T13:02:44.903Z,6.15
2023-02-22T13:07:59.149Z,5.43
2023-02-22T13:13:10.255Z,5.88
2023-02-22T13:18:21.251Z,6.72
2023-02-22T13:23:39.195Z,6.25
2023-02-22T13:28:47.635Z,5.55
2023-02-22T13:34:13.249Z,5.22
2023-02-22T13:39:46.414Z,6.15
2023-02-22T13:45:22.004Z,6.18
2023-02-22T13:50:51.501Z,6.57
2023-02-22T13:55:57.829Z,7.72
2023-02-22T14:01:01.624Z,5.85
2023-02-22T14:06:08.598Z,5.38
2023-02-22T14:11:45.345Z,5.22
2023-02-22T14:17:23.308Z,5.35
2023-02-22T14:22:30.854Z,5.18
2023-02-22T14:27:41.850Z,5.25
2023-02-22T14:32:45.298Z,5.85
2023-02-22T14:37:55.710Z,5.45
2023-02-22T14:43:05.177Z,5.50
2023-02-22T14:48:20.420Z,4.40
2023-02-22T14:53:39.557Z,4.97
2023-02-22T14:58:48.840Z,4.75
2023-02-22T15:04:07.337Z,4.55
2023-02-22T15:09:24.105Z,3.95
2023-02-22T15:14:28.553Z,5.40
2023-02-22T15:19:34.498Z,4.00
2023-02-22T15:24:40.689Z,3.67
2023-02-22T15:29:46.111Z,3.35
2023-02-22T15:34:49.494Z,3.13
2023-02-22T15:39:59.470Z,3.50
2023-02-22T15:45:03.062Z,4.15
2023-02-22T15:50:18.242Z,4.13
2023-02-22T15:55:26.835Z,3.58
2023-02-22T16:00:37.085Z,3.88
2023-02-22T16:05:44.570Z,3.58
2023-02-22T16:10:54.888Z,2.90
2023-02-22T16:16:01.954Z,3.28
2023-02-22T16:21:12.021Z,3.20
2023-02-22T16:26:25.749Z,3.28
2023-02-22T16:31:33.715Z,3.67
2023-02-22T16:36:43.049Z,3.30
2023-02-22T16:41:47.934Z,3.30
2023-02-22T16:46:51.233Z,4.63
2023-02-22T16:51:57.719Z,3.92
2023-02-22T16:57:04.054Z,3.30
2023-02-22T17:02:08.436Z,4.38
2023-02-22T17:07:12.142Z,4.55
2023-02-22T17:12:16.774Z,4.40
2023-02-22T17:17:20.138Z,5.45
2023-02-22T17:22:24.161Z,6.40
2023-02-22T17:27:28.788Z,5.80
2023-02-22T17:32:32.532Z,6.38
2023-02-22T17:37:35.842Z,6.78
2023-02-22T17:42:40.658Z,7.07
2023-02-22T17:47:44.449Z,6.43
2023-02-22T17:52:51.549Z,7.22
2023-02-22T17:57:58.969Z,6.78
2023-02-22T18:03:04.222Z,8.05
2023-02-22T18:08:07.661Z,7.78
2023-02-22T18:13:16.747Z,8.75
2023-02-22T18:18:22.199Z,7.53
2023-02-22T18:23:27.877Z,7.72
2023-02-22T18:28:32.935Z,7.80
2023-02-22T18:33:36.208Z,8.65
2023-02-22T18:38:42.774Z,7.70
2023-02-22T18:43:47.882Z,8.68
2023-02-22T18:48:54.259Z,9.05
2023-02-22T18:54:00.532Z,8.68
2023-02-22T18:59:06.573Z,8.98
2023-02-22T19:04:11.959Z,8.57
2023-02-22T19:09:15.364Z,8.68
2023-02-22T19:14:20.036Z,9.25
2023-02-22T19:19:26.369Z,9.13
2023-02-22T19:24:29.885Z,9.40
2023-02-22T19:29:38.344Z,9.48
2023-02-22T19:34:43.990Z,9.60
2023-02-22T19:39:47.319Z,10.77
2023-02-22T19:44:53.363Z,8.80
2023-02-22T19:49:59.664Z,9.48
2023-02-22T19:55:03.672Z,9.00
2023-02-22T20:00:12.261Z,10.23
2023-02-22T20:05:16.542Z,11.20
2023-02-22T20:10:20.254Z,9.70
2023-02-22T20:15:25.466Z,10.57
2023-02-22T20:20:30.690Z,9.83
2023-02-22T20:25:35.430Z,10.10
2023-02-22T20:30:41.608Z,11.00
2023-02-22T20:35:46.660Z,9.65
2023-02-22T20:40:49.893Z,10.48
2023-02-22T20:45:54.548Z,11.32
2023-02-22T20:50:57.927Z,11.50
2023-02-22T20:56:01.137Z,11.30
2023-02-22T21:01:08.057Z,9.75
2023-02-22T21:06:15.048Z,10.88
2023-02-22T21:11:19.340Z,10.95
2023-02-22T21:16:25.967Z,10.65
2023-02-22T21:21:31.325Z,10.77
2023-02-22T21:26:35.698Z,10.13
2023-02-22T21:31:40.837Z,11.30
2023-02-22T21:36:44.979Z,11.15
2023-02-22T21:41:50.239Z,11.15
2023-02-22T21:46:54.944Z,10.65
2023-02-22T21:51:58.343Z,10.45
2023-02-22T21:57:01.647Z,11.10
2023-02-22T22:02:06.445Z,10.85
2023-02-22T22:07:09.696Z,11.67
2023-02-22T22:12:14.220Z,12.55
2023-02-22T22:17:18.856Z,10.98
2023-02-22T22:22:23.139Z,11.80
2023-02-22T22:27:27.348Z,10.82
2023-02-22T22:32:32.302Z,11.23
2023-02-22T22:37:35.574Z,11.68
2023-02-22T22:42:39.409Z,11.10
2023-02-22T22:47:46.133Z,11.23
2023-02-22T22:52:49.685Z,11.75
2023-02-22T22:57:52.997Z,11.18
2023-02-22T23:02:57.820Z,10.27
2023-02-22T23:08:04.773Z,10.53
2023-02-22T23:13:10.423Z,11.35
2023-02-22T23:18:15.500Z,10.60
2023-02-22T23:23:18.764Z,10.50
2023-02-22T23:28:23.799Z,10.15
2023-02-22T23:33:31.431Z,9.35
2023-02-22T23:38:35.047Z,8.38
2023-02-22T23:43:40.480Z,9.73
2023-02-22T23:48:49.296Z,10.00
2023-02-22T23:53:55.699Z,9.35
2023-02-22T23:58:59.368Z,9.80
